Ruth, Nevada
Current Conditions -  °F | °C
As of 9:53 PM on Saturday 25 Oct 2014 (Local Time) from KELY Reporting Station
Clear Clear  
Wind Chill: 53°   Ceiling: Unl
Heat Index: 53°   Visibility: 10mi
Dew Point: 30°   Wind: 12mph
Humidity: 41%   Direction: 170°S
Pressure: 30.04"   Gusts: NA
Location:  39.28°N, 114.99°W
Report Text: KELY 260453Z AUTO 17010KT 10SM CLR 12/M01 A3004 RMK AO2 SLP096 T01171011
Loading
Personal Weather Stations






























Interactive Weather Map
Tropical Storm Tracking
New forecast layout! Learn more

10-Day Weather Forecast

Advertisements
Track Severe Weather on mobile